Portada
METAR-TAF:

METAR-TAF

Aeroports :

Aeroport d'Oujda-Angads

Oujda, Marroc

latitud: 34-47N, longitud: 001-56W, altitud: 468 m

Observació

L'informe es va fer fa 19 minuts, a les 11:00 UTC
Vent 14 kt del Sud/Sud-Oest
Temperatura 15°C
Humitat 44%
Pressió 1020 hPa
Visibilitat 10 km o més
Escasses núvols a una alçada de 2600 ft

METAR: GMFO 251100Z 20014KT 9999 FEW026 15/03 Q1020 NOSIG

Hora: 12:19 (11:19 UTC)

Pronòstic

L'informe es va fer fa 6 hores i 19 minuts, a les 05:00 UTC
Pronòstic vàlid del 25 a les 06 UTC al 26 a les 12 UTC
Vent 14 kt del Sud-Oest
Visibilitat 10 km o més
Núvols disperses a una alçada de 2600 ft
Cel ennuvolat a una alçada de 10000 ft
Probabilitat 30% :
Temporalment
l' 25 a les 12 UTC al 25 a les 18 UTC
Escasses núvols a una alçada de 4000 ft, Cumulonimbus.
tempesta, pluja

TAF: GMFO 250500Z 2506/2612 22014KT 9999 SCT026 BKN100 PROB30 TEMPO 2512/2518 TSRA FEW040CB

Observacions i pronòstics meteorològics de més de 4000 aeroports (METAR i TAF).

Les estacions disponibles són els punts grocs i vermells al mapa.

Posi el ratolí al punt desitjat per veure el nom de l'estació.

Feu clic per veure les observacions i els pronòstics meteorològics.

Per canviar el mapa: feu clic els botons verds amb una creu de color negre per apropar; al botó verd amb un guió per allunyar la imatge; o en les fletxes verdes per a mapes adjacents.


METAR-TAF: